Terminal Aerodrome Forecast
Issued by NWS St Louis, MO

Home | Current Version | Previous Version | Text Only | Print | Product List | Glossary On
Versions: 1 2 3 4 5 6 7 8 9 10 11 12 13 14 15 16 17 18 19 20 21 22 23 24 25 26
000
FTUS43 KLSX 012346
TAFSTL
TAF
KSTL 012346Z 0200/0306 VRB05KT P6SM VCTS SCT050CB BKN100
      TEMPO 0200/0202 4SM TSRA OVC040CB
     FM020200 VRB05KT 4SM RA VCTS OVC030CB
     FM020700 VRB04KT 4SM BR OVC030
     FM020900 03006KT 3SM BR VCSH OVC010
     FM021500 01007KT 6SM BR OVC020
     FM022100 35007KT P6SM BKN035=

USA.gov is the U.S. government's official web portal to all federal, state and local government web resources and services.